Time,TemperatureF,DewpointF,PressureIn,WindDirection,WindDirectionDegrees,WindSpeedMPH,WindSpeedGustMPH,Humidity,HourlyPrecipIn,Conditions,Clouds,dailyrainin,SoftwareType,DateUTC
2013-02-12 00:01:00,25.0,19.0,30.09,WNW,292,0.0,1.0,79,0.00,,,0.00,,2013-02-12 06:01:00,
2013-02-12 00:12:00,25.0,20.0,30.09,West,273,0.0,2.0,81,0.00,,,0.00,,2013-02-12 06:12:00,
2013-02-12 00:21:00,25.0,20.0,30.09,West,273,0.0,2.0,81,0.00,,,0.00,,2013-02-12 06:21:00,
2013-02-12 00:32:00,25.0,20.0,30.09,West,273,0.0,0.0,81,0.00,,,0.00,,2013-02-12 06:32:00,
2013-02-12 00:42:00,25.0,20.0,30.09,West,273,0.0,0.0,82,0.00,,,0.00,,2013-02-12 06:42:00,
2013-02-12 00:51:00,25.0,20.0,30.09,West,273,0.0,0.0,82,0.00,,,0.00,,2013-02-12 06:51:00,
2013-02-12 01:01:00,25.0,20.0,30.09,West,273,0.0,0.0,81,0.00,,,0.00,,2013-02-12 07:01:00,
2013-02-12 01:11:00,25.0,20.0,30.09,West,273,0.0,0.0,81,0.00,,,0.00,,2013-02-12 07:11:00,
2013-02-12 01:21:00,25.0,20.0,30.09,West,273,0.0,0.0,81,0.00,,,0.00,,2013-02-12 07:21:00,
2013-02-12 01:31:00,25.0,20.0,30.09,West,273,0.0,0.0,81,0.00,,,0.00,,2013-02-12 07:31:00,
2013-02-12 01:41:00,25.0,20.0,30.09,West,273,0.0,0.0,81,0.00,,,0.00,,2013-02-12 07:41:00,
2013-02-12 01:52:00,25.0,20.0,30.09,West,273,0.0,0.0,81,0.00,,,0.00,,2013-02-12 07:52:00,
2013-02-12 02:01:00,24.0,19.0,30.09,West,273,0.0,0.0,80,0.00,,,0.00,,2013-02-12 08:01:00,
2013-02-12 02:11:00,24.0,19.0,30.09,West,273,0.0,0.0,80,0.00,,,0.00,,2013-02-12 08:11:00,
2013-02-12 02:21:00,24.0,19.0,30.09,West,273,0.0,0.0,80,0.00,,,0.00,,2013-02-12 08:21:00,
2013-02-12 02:32:00,24.0,19.0,30.07,West,273,0.0,0.0,81,0.00,,,0.00,,2013-02-12 08:32:00,
2013-02-12 02:41:00,24.0,19.0,30.07,West,273,0.0,0.0,81,0.00,,,0.00,,2013-02-12 08:41:00,
2013-02-12 02:52:00,24.0,19.0,30.07,West,273,0.0,0.0,81,0.00,,,0.00,,2013-02-12 08:52:00,
2013-02-12 03:01:00,24.0,19.0,30.07,West,273,0.0,0.0,81,0.00,,,0.00,,2013-02-12 09:01:00,
2013-02-12 03:11:00,24.0,19.0,30.07,West,273,0.0,0.0,81,0.00,,,0.00,,2013-02-12 09:11:00,
2013-02-12 03:21:00,24.0,19.0,30.07,West,273,0.0,0.0,81,0.00,,,0.00,,2013-02-12 09:21:00,
2013-02-12 03:32:00,22.0,18.0,30.06,West,273,0.0,0.0,83,0.00,,,0.00,,2013-02-12 09:32:00,
2013-02-12 03:42:00,22.0,18.0,30.06,West,273,0.0,0.0,83,0.00,,,0.00,,2013-02-12 09:42:00,
2013-02-12 03:52:00,22.0,18.0,30.06,West,273,0.0,0.0,84,0.00,,,0.00,,2013-02-12 09:52:00,
2013-02-12 04:01:00,22.0,18.0,30.04,West,273,0.0,0.0,83,0.00,,,0.00,,2013-02-12 10:01:00,
2013-02-12 04:11:00,22.0,18.0,30.02,West,273,0.0,0.0,83,0.00,,,0.00,,2013-02-12 10:11:00,
2013-02-12 04:21:00,22.0,18.0,30.02,West,273,0.0,0.0,83,0.00,,,0.00,,2013-02-12 10:21:00,
2013-02-12 04:32:00,21.0,17.0,30.03,West,273,0.0,0.0,84,0.00,,,0.00,,2013-02-12 10:32:00,
2013-02-12 04:43:00,21.0,17.0,30.03,West,273,0.0,0.0,84,0.00,,,0.00,,2013-02-12 10:43:00,
2013-02-12 04:51:00,21.0,17.0,30.04,West,273,0.0,0.0,86,0.00,,,0.00,,2013-02-12 10:51:00,
2013-02-12 05:01:00,21.0,17.0,30.04,West,273,0.0,0.0,86,0.00,,,0.00,,2013-02-12 11:01:00,
2013-02-12 05:11:00,21.0,17.0,30.04,West,273,0.0,0.0,86,0.00,,,0.00,,2013-02-12 11:11:00,
2013-02-12 05:21:00,21.0,17.0,30.04,West,273,0.0,0.0,86,0.00,,,0.00,,2013-02-12 11:21:00,
2013-02-12 05:32:00,21.0,17.0,30.05,West,273,0.0,0.0,86,0.00,,,0.00,,2013-02-12 11:32:00,
2013-02-12 05:42:00,21.0,17.0,30.05,West,273,0.0,0.0,86,0.00,,,0.00,,2013-02-12 11:42:00,
2013-02-12 05:52:00,21.0,17.0,30.05,West,272,0.0,0.0,85,0.00,,,0.00,,2013-02-12 11:52:00,
2013-02-12 06:01:00,21.0,17.0,30.05,West,272,0.0,0.0,86,0.00,,,0.00,,2013-02-12 12:01:00,
2013-02-12 06:11:00,21.0,17.0,30.05,West,272,0.0,0.0,86,0.00,,,0.00,,2013-02-12 12:11:00,
2013-02-12 06:21:00,21.0,17.0,30.05,West,272,0.0,0.0,86,0.00,,,0.00,,2013-02-12 12:21:00,
2013-02-12 06:32:00,21.0,17.0,30.05,West,272,0.0,0.0,85,0.00,,,0.00,,2013-02-12 12:32:00,
2013-02-12 06:42:00,21.0,17.0,30.05,West,272,0.0,0.0,85,0.00,,,0.00,,2013-02-12 12:42:00,
2013-02-12 06:52:00,21.0,17.0,30.05,West,272,0.0,0.0,85,0.00,,,0.00,,2013-02-12 12:52:00,
2013-02-12 07:01:00,21.0,17.0,30.04,West,272,0.0,0.0,85,0.00,,,0.00,,2013-02-12 13:01:00,
2013-02-12 07:11:00,21.0,17.0,30.05,West,272,0.0,0.0,85,0.00,,,0.00,,2013-02-12 13:11:00,
2013-02-12 07:22:00,21.0,17.0,30.05,West,272,0.0,0.0,85,0.00,,,0.00,,2013-02-12 13:22:00,
2013-02-12 07:32:00,21.0,17.0,30.05,West,272,0.0,0.0,85,0.00,,,0.00,,2013-02-12 13:32:00,
2013-02-12 07:42:00,21.0,17.0,30.05,West,272,0.0,0.0,85,0.00,,,0.00,,2013-02-12 13:42:00,
2013-02-12 07:52:00,21.0,17.0,30.04,West,272,0.0,0.0,85,0.00,,,0.00,,2013-02-12 13:52:00,
2013-02-12 08:01:00,21.0,17.0,30.03,West,272,0.0,0.0,85,0.00,,,0.00,,2013-02-12 14:01:00,
2013-02-12 08:12:00,21.0,17.0,30.03,West,272,0.0,0.0,85,0.00,,,0.00,,2013-02-12 14:12:00,
2013-02-12 08:21:00,22.0,18.0,30.02,West,272,0.0,0.0,86,0.00,,,0.00,,2013-02-12 14:21:00,
2013-02-12 08:32:00,23.0,19.0,30.01,West,272,0.0,0.0,85,0.00,,,0.00,,2013-02-12 14:32:00,
2013-02-12 08:42:00,23.0,19.0,30.01,West,272,0.0,0.0,85,0.00,,,0.00,,2013-02-12 14:42:00,
2013-02-12 08:52:00,25.0,21.0,30.00,West,271,0.0,0.0,85,0.00,,,0.00,,2013-02-12 14:52:00,
2013-02-12 09:02:00,26.0,22.0,30.00,West,263,0.0,1.0,84,0.00,,,0.00,,2013-02-12 15:02:00,
2013-02-12 09:11:00,27.0,23.0,30.01,South,176,1.0,6.0,84,0.00,,,0.00,,2013-02-12 15:11:00,
2013-02-12 09:21:00,27.0,23.0,30.01,South,176,1.0,6.0,84,0.00,,,0.00,,2013-02-12 15:21:00,
2013-02-12 09:32:00,27.0,23.0,30.01,South,176,1.0,6.0,84,0.00,,,0.00,,2013-02-12 15:32:00,
2013-02-12 09:42:00,27.0,23.0,30.01,South,176,1.0,6.0,84,0.00,,,0.00,,2013-02-12 15:42:00,
2013-02-12 09:52:00,30.0,23.0,30.01,SSW,200,3.0,8.0,76,0.00,,,0.00,,2013-02-12 15:52:00,
2013-02-12 10:01:00,31.0,23.0,30.01,SSW,197,3.0,10.0,73,0.00,,,0.00,,2013-02-12 16:01:00,
2013-02-12 10:11:00,31.0,23.0,30.01,SSW,197,3.0,10.0,73,0.00,,,0.00,,2013-02-12 16:11:00,
2013-02-12 10:22:00,32.0,24.0,30.00,South,172,3.0,10.0,72,0.00,,,0.00,,2013-02-12 16:22:00,
2013-02-12 10:31:00,34.0,24.0,29.99,SSW,203,1.0,8.0,67,0.00,,,0.00,,2013-02-12 16:31:00,
2013-02-12 10:41:00,34.0,24.0,29.99,SSW,203,1.0,8.0,67,0.00,,,0.00,,2013-02-12 16:41:00,
2013-02-12 10:51:00,36.0,24.0,29.99,South,183,1.0,10.0,62,0.00,,,0.00,,2013-02-12 16:51:00,
2013-02-12 11:01:00,37.0,24.0,29.98,South,184,2.0,8.0,59,0.00,,,0.00,,2013-02-12 17:01:00,
2013-02-12 11:12:00,37.0,24.0,29.98,South,184,2.0,8.0,59,0.00,,,0.00,,2013-02-12 17:12:00,
2013-02-12 11:21:00,38.0,24.0,29.98,SW,220,2.0,10.0,56,0.00,,,0.00,,2013-02-12 17:21:00,
2013-02-12 11:32:00,39.0,22.0,29.98,SSW,208,2.0,10.0,51,0.00,,,0.00,,2013-02-12 17:32:00,
2013-02-12 11:42:00,39.0,22.0,29.98,SSW,208,2.0,10.0,51,0.00,,,0.00,,2013-02-12 17:42:00,
2013-02-12 11:52:00,41.0,24.0,29.98,SSW,206,2.0,8.0,50,0.00,,,0.00,,2013-02-12 17:52:00,
2013-02-12 12:01:00,43.0,23.0,29.97,SSW,208,2.0,11.0,44,0.00,,,0.00,,2013-02-12 18:01:00,
2013-02-12 12:11:00,43.0,23.0,29.97,SSW,208,2.0,11.0,44,0.00,,,0.00,,2013-02-12 18:11:00,
2013-02-12 12:23:00,44.0,22.0,29.96,South,169,1.0,11.0,42,0.00,,,0.00,,2013-02-12 18:23:00,
2013-02-12 12:32:00,45.0,22.0,29.96,SW,218,3.0,15.0,39,0.00,,,0.00,,2013-02-12 18:32:00,
2013-02-12 12:41:00,45.0,22.0,29.96,SW,218,3.0,15.0,39,0.00,,,0.00,,2013-02-12 18:41:00,
2013-02-12 12:51:00,45.0,20.0,29.93,WNW,283,2.0,10.0,36,0.00,,,0.00,,2013-02-12 18:51:00,
2013-02-12 13:02:00,45.0,20.0,29.93,WNW,283,2.0,10.0,36,0.00,,,0.00,,2013-02-12 19:02:00,
2013-02-12 13:11:00,45.0,20.0,29.93,WNW,283,2.0,10.0,36,0.00,,,0.00,,2013-02-12 19:11:00,
2013-02-12 13:21:00,46.0,21.0,29.91,SSW,211,3.0,10.0,36,0.00,,,0.00,,2013-02-12 19:21:00,
2013-02-12 13:31:00,46.0,21.0,29.91,SSW,211,3.0,10.0,36,0.00,,,0.00,,2013-02-12 19:31:00,
2013-02-12 13:42:00,46.0,21.0,29.91,SSW,211,3.0,10.0,36,0.00,,,0.00,,2013-02-12 19:42:00,
2013-02-12 13:52:00,47.0,21.0,29.90,SSE,165,1.0,11.0,36,0.00,,,0.00,,2013-02-12 19:52:00,
2013-02-12 14:01:00,47.0,20.0,29.88,West,268,2.0,15.0,34,0.00,,,0.00,,2013-02-12 20:01:00,
2013-02-12 14:11:00,47.0,20.0,29.88,West,268,2.0,15.0,34,0.00,,,0.00,,2013-02-12 20:11:00,
2013-02-12 14:21:00,47.0,19.0,29.88,West,259,2.0,12.0,33,0.00,,,0.00,,2013-02-12 20:21:00,
2013-02-12 14:31:00,48.0,20.0,29.87,WSW,237,2.0,11.0,33,0.00,,,0.00,,2013-02-12 20:31:00,
2013-02-12 14:41:00,48.0,20.0,29.87,WSW,237,2.0,11.0,33,0.00,,,0.00,,2013-02-12 20:41:00,
2013-02-12 14:52:00,48.0,19.0,29.87,SW,214,2.0,11.0,31,0.00,,,0.00,,2013-02-12 20:52:00,
2013-02-12 15:01:00,48.0,19.0,29.86,WSW,246,1.0,12.0,31,0.00,,,0.00,,2013-02-12 21:01:00,
2013-02-12 15:11:00,48.0,19.0,29.86,WSW,246,1.0,12.0,31,0.00,,,0.00,,2013-02-12 21:11:00,
2013-02-12 15:21:00,48.0,20.0,29.86,SW,236,2.0,13.0,32,0.00,,,0.00,,2013-02-12 21:21:00,
2013-02-12 15:31:00,49.0,20.0,29.85,West,262,1.0,12.0,31,0.00,,,0.00,,2013-02-12 21:31:00,
2013-02-12 15:42:00,48.0,20.0,29.85,West,266,2.0,9.0,32,0.00,,,0.00,,2013-02-12 21:42:00,
2013-02-12 15:51:00,48.0,20.0,29.85,West,266,2.0,9.0,32,0.00,,,0.00,,2013-02-12 21:51:00,
2013-02-12 16:01:00,49.0,20.0,29.85,SW,217,1.0,8.0,32,0.00,,,0.00,,2013-02-12 22:01:00,
2013-02-12 16:12:00,49.0,20.0,29.85,SW,217,1.0,8.0,32,0.00,,,0.00,,2013-02-12 22:12:00,
2013-02-12 16:21:00,48.0,20.0,29.84,SW,224,0.0,5.0,32,0.00,,,0.00,,2013-02-12 22:21:00,
2013-02-12 16:32:00,48.0,20.0,29.84,WSW,254,2.0,9.0,33,0.00,,,0.00,,2013-02-12 22:32:00,
2013-02-12 16:42:00,48.0,20.0,29.84,WSW,254,2.0,9.0,33,0.00,,,0.00,,2013-02-12 22:42:00,
2013-02-12 16:51:00,49.0,20.0,29.83,SW,234,1.0,8.0,32,0.00,,,0.00,,2013-02-12 22:51:00,
2013-02-12 17:01:00,48.0,22.0,29.83,SW,230,0.0,5.0,35,0.00,,,0.00,,2013-02-12 23:01:00,
2013-02-12 17:11:00,46.0,22.0,29.83,SW,229,0.0,1.0,38,0.00,,,0.00,,2013-02-12 23:11:00,
2013-02-12 17:21:00,46.0,22.0,29.83,SW,229,0.0,1.0,38,0.00,,,0.00,,2013-02-12 23:21:00,
2013-02-12 17:32:00,46.0,21.0,29.83,SW,225,0.0,3.0,37,0.00,,,0.00,,2013-02-12 23:32:00,
2013-02-12 17:42:00,46.0,21.0,29.83,SW,225,0.0,3.0,37,0.00,,,0.00,,2013-02-12 23:42:00,
2013-02-12 17:52:00,45.0,21.0,29.83,SW,226,0.0,2.0,38,0.00,,,0.00,,2013-02-12 23:52:00,
2013-02-12 18:02:00,44.0,21.0,29.83,SW,224,0.0,2.0,39,0.00,,,0.00,,2013-02-13 00:02:00,
2013-02-12 18:11:00,44.0,21.0,29.83,SW,224,0.0,2.0,39,0.00,,,0.00,,2013-02-13 00:11:00,
2013-02-12 18:21:00,42.0,21.0,29.83,SW,224,0.0,2.0,42,0.00,,,0.00,,2013-02-13 00:21:00,
2013-02-12 18:32:00,42.0,21.0,29.83,SW,224,0.0,0.0,43,0.00,,,0.00,,2013-02-13 00:32:00,
2013-02-12 18:42:00,42.0,21.0,29.83,SW,224,0.0,0.0,43,0.00,,,0.00,,2013-02-13 00:42:00,
2013-02-12 18:52:00,40.0,20.0,29.83,SW,224,0.0,2.0,44,0.00,,,0.00,,2013-02-13 00:52:00,
2013-02-12 19:01:00,40.0,20.0,29.83,SW,224,0.0,0.0,45,0.00,,,0.00,,2013-02-13 01:01:00,
2013-02-12 19:11:00,40.0,20.0,29.83,SW,224,0.0,0.0,45,0.00,,,0.00,,2013-02-13 01:11:00,
2013-02-12 19:21:00,40.0,20.0,29.83,SW,224,0.0,1.0,45,0.00,,,0.00,,2013-02-13 01:21:00,
2013-02-12 19:31:00,40.0,20.0,29.83,SW,224,0.0,1.0,45,0.00,,,0.00,,2013-02-13 01:31:00,
2013-02-12 19:42:00,40.0,20.0,29.83,SW,224,0.0,1.0,45,0.00,,,0.00,,2013-02-13 01:42:00,
2013-02-12 19:51:00,40.0,20.0,29.83,SSW,196,1.0,6.0,44,0.00,,,0.00,,2013-02-13 01:51:00,
2013-02-12 20:01:00,39.0,20.0,29.83,SSW,211,0.0,2.0,47,0.00,,,0.00,,2013-02-13 02:01:00,
2013-02-12 20:11:00,39.0,20.0,29.83,SSW,211,0.0,2.0,47,0.00,,,0.00,,2013-02-13 02:11:00,
2013-02-12 20:21:00,38.0,20.0,29.84,SW,214,0.0,0.0,47,0.00,,,0.00,,2013-02-13 02:21:00,
2013-02-12 20:31:00,38.0,20.0,29.84,SW,214,0.0,0.0,47,0.00,,,0.00,,2013-02-13 02:31:00,
2013-02-12 20:41:00,38.0,20.0,29.84,SW,214,0.0,0.0,47,0.00,,,0.00,,2013-02-13 02:41:00,
2013-02-12 20:52:00,37.0,20.0,29.84,SW,214,0.0,0.0,49,0.00,,,0.00,,2013-02-13 02:52:00,
2013-02-12 21:01:00,37.0,20.0,29.84,SW,214,0.0,0.0,49,0.00,,,0.00,,2013-02-13 03:01:00,
2013-02-12 21:11:00,37.0,20.0,29.84,SW,214,0.0,0.0,49,0.00,,,0.00,,2013-02-13 03:11:00,
2013-02-12 21:21:00,37.0,20.0,29.84,SW,214,0.0,0.0,49,0.00,,,0.00,,2013-02-13 03:21:00,
2013-02-12 21:32:00,36.0,19.0,29.84,SW,214,0.0,0.0,50,0.00,,,0.00,,2013-02-13 03:32:00,
2013-02-12 21:41:00,36.0,19.0,29.84,SW,214,0.0,0.0,50,0.00,,,0.00,,2013-02-13 03:41:00,
2013-02-12 21:51:00,36.0,19.0,29.84,SW,214,0.0,0.0,50,0.00,,,0.00,,2013-02-13 03:51:00,
2013-02-12 22:01:00,35.0,20.0,29.85,NW,317,0.0,2.0,54,0.00,,,0.00,,2013-02-13 04:01:00,
2013-02-12 22:11:00,35.0,20.0,29.85,NW,317,0.0,2.0,54,0.00,,,0.00,,2013-02-13 04:11:00,
2013-02-12 22:21:00,35.0,20.0,29.85,NW,317,0.0,2.0,54,0.00,,,0.00,,2013-02-13 04:21:00,
2013-02-12 22:31:00,33.0,20.0,29.83,NW,317,0.0,0.0,58,0.00,,,0.00,,2013-02-13 04:31:00,
2013-02-12 22:32:00,35.0,20.0,29.85,NW,317,0.0,2.0,54,0.00,,,0.00,,2013-02-13 04:32:00,
2013-02-12 22:41:00,35.0,20.0,29.85,NW,317,0.0,2.0,54,0.00,,,0.00,,2013-02-13 04:41:00,
2013-02-12 22:52:00,33.0,20.0,29.83,NW,317,0.0,0.0,58,0.00,,,0.00,,2013-02-13 04:52:00,
2013-02-12 23:01:00,33.0,20.0,29.83,NW,317,0.0,0.0,58,0.00,,,0.00,,2013-02-13 05:01:00,
2013-02-12 23:11:00,33.0,20.0,29.83,NW,317,0.0,0.0,58,0.00,,,0.00,,2013-02-13 05:11:00,
2013-02-12 23:22:00,33.0,20.0,29.83,NW,317,0.0,0.0,58,0.00,,,0.00,,2013-02-13 05:22:00,
2013-02-12 23:52:00,31.0,20.0,29.82,NW,317,0.0,0.0,63,0.00,,,0.00,,2013-02-13 05:52:00,